Time;durP1;ratioP1;P1;durP2;ratioP2;P2;SDS_P1;SDS_P2;PMS_P1;PMS_P2;Temp;Humidity;BMP_temperature;BMP_pressure;BME280_temperature;BME280_humidity;BME280_pressure;Samples;Min_cycle;Max_cycle;Signal;HPM_P1;HPM_P2
2023/12/10 00:01:28;;;;;;;17.63;5.40;;;;;;;;;;2614064;54;20969;-86
2023/12/10 00:03:54;;;;;;;12.30;4.47;;;;;;;;;;2614585;54;20418;-82
2023/12/10 00:06:20;;;;;;;14.33;4.47;;;;;;;;;;2613448;54;20952;-83
2023/12/10 00:08:46;;;;;;;11.33;3.83;;;;;;;;;;2614956;39;21036;-83
2023/12/10 00:11:12;;;;;;;15.83;5.77;;;;;;;;;;2613025;39;20791;-83
2023/12/10 00:13:38;;;;;;;24.13;5.63;;;;;;;;;;2612658;54;20425;-82
2023/12/10 00:16:04;;;;;;;16.23;5.13;;;;;;;;;;2613795;54;20442;-83
2023/12/10 00:18:30;;;;;;;7.93;3.13;;;;;;;;;;2613686;54;20522;-83
2023/12/10 00:20:56;;;;;;;10.53;4.10;;;;;;;;;;2614583;54;20434;-81
2023/12/10 00:23:22;;;;;;;19.50;4.60;;;;;;;;;;2614975;54;20598;-83
2023/12/10 00:25:48;;;;;;;13.30;5.07;;;;;;;;;;2614334;39;20745;-82
2023/12/10 00:28:15;;;;;;;14.00;3.93;;;;;;;;;;2614647;54;20426;-83
2023/12/10 00:30:42;;;;;;;16.30;4.70;;;;;;;;;;2614544;39;20886;-83
2023/12/10 00:33:09;;;;;;;17.77;7.60;;;;;;;;;;2614632;54;20462;-83
2023/12/10 00:35:35;;;;;;;17.90;5.33;;;;;;;;;;2614015;54;20403;-84
2023/12/10 00:38:01;;;;;;;7.50;3.33;;;;;;;;;;2615101;54;20502;-84
2023/12/10 00:40:27;;;;;;;9.10;3.20;;;;;;;;;;2615560;47;20538;-84
2023/12/10 00:42:53;;;;;;;12.30;3.83;;;;;;;;;;2616594;39;20870;-84
2023/12/10 00:45:19;;;;;;;11.93;5.00;;;;;;;;;;2614582;54;20518;-80
2023/12/10 00:47:45;;;;;;;11.73;4.57;;;;;;;;;;2614562;54;20423;-81
2023/12/10 00:50:11;;;;;;;6.77;2.73;;;;;;;;;;2613916;54;20444;-81
2023/12/10 00:52:37;;;;;;;17.27;5.00;;;;;;;;;;2613231;54;20455;-82
2023/12/10 00:55:05;;;;;;;17.60;5.00;;;;;;;;;;2614471;54;20418;-81
2023/12/10 00:57:31;;;;;;;11.07;2.80;;;;;;;;;;2613941;54;20422;-81
2023/12/10 00:59:57;;;;;;;12.63;2.50;;;;;;;;;;2614185;54;20425;-81
2023/12/10 01:02:23;;;;;;;11.67;3.00;;;;;;;;;;2613006;47;20437;-78
2023/12/10 01:04:49;;;;;;;12.13;4.20;;;;;;;;;;2612980;54;20562;-80
2023/12/10 01:07:16;;;;;;;12.63;4.53;;;;;;;;;;2613916;54;20431;-83
2023/12/10 01:09:42;;;;;;;15.10;3.37;;;;;;;;;;2614125;47;20441;-83
2023/12/10 01:12:08;;;;;;;11.63;3.80;;;;;;;;;;2613983;54;20510;-82
2023/12/10 01:14:34;;;;;;;19.50;4.17;;;;;;;;;;2613986;39;20503;-83
2023/12/10 01:17:01;;;;;;;17.60;5.43;;;;;;;;;;2613740;54;20542;-81
2023/12/10 01:19:27;;;;;;;13.63;3.50;;;;;;;;;;2613967;54;20505;-82
2023/12/10 01:21:53;;;;;;;14.03;4.47;;;;;;;;;;2614250;39;20798;-80
2023/12/10 01:24:20;;;;;;;19.13;4.83;;;;;;;;;;2614446;39;20831;-81
2023/12/10 01:26:46;;;;;;;11.57;3.43;;;;;;;;;;2613950;47;20457;-81
2023/12/10 01:29:12;;;;;;;15.80;6.93;;;;;;;;;;2614790;54;20522;-82
2023/12/10 01:31:39;;;;;;;13.77;3.87;;;;;;;;;;2614408;39;20799;-83
2023/12/10 01:34:06;;;;;;;19.70;6.77;;;;;;;;;;2613622;39;20856;-83
2023/12/10 01:36:32;;;;;;;25.03;5.47;;;;;;;;;;2613585;54;20434;-82
2023/12/10 01:38:58;;;;;;;17.10;6.23;;;;;;;;;;2613573;54;20419;-82
2023/12/10 01:41:25;;;;;;;13.90;4.30;;;;;;;;;;2613371;54;20459;-83
2023/12/10 01:43:52;;;;;;;10.73;3.77;;;;;;;;;;2612555;47;20514;-83
2023/12/10 01:46:18;;;;;;;15.93;5.60;;;;;;;;;;2611588;39;20838;-71
2023/12/10 01:48:45;;;;;;;17.53;5.00;;;;;;;;;;2610045;54;20421;-72
2023/12/10 01:51:11;;;;;;;16.20;4.23;;;;;;;;;;2611505;39;21489;-72
2023/12/10 01:53:38;;;;;;;13.27;4.63;;;;;;;;;;2610844;54;20405;-72
2023/12/10 01:56:08;;;;;;;17.67;4.47;;;;;;;;;;2612694;54;20417;-78
2023/12/10 01:58:34;;;;;;;13.77;4.37;;;;;;;;;;2613535;54;20423;-79
2023/12/10 02:01:01;;;;;;;21.93;4.33;;;;;;;;;;2612888;54;20434;-79
2023/12/10 02:03:28;;;;;;;12.80;4.30;;;;;;;;;;2612888;46;20420;-79
2023/12/10 02:05:54;;;;;;;11.63;4.57;;;;;;;;;;2613249;54;20473;-80
2023/12/10 02:08:22;;;;;;;14.17;3.60;;;;;;;;;;2611964;54;20548;-83
2023/12/10 02:10:48;;;;;;;24.13;5.17;;;;;;;;;;2613134;54;20411;-82
2023/12/10 02:13:14;;;;;;;6.63;3.70;;;;;;;;;;2611385;47;20447;-80
2023/12/10 02:15:40;;;;;;;14.40;3.83;;;;;;;;;;2612577;54;20434;-83
2023/12/10 02:18:06;;;;;;;8.90;3.83;;;;;;;;;;2611224;47;20419;-79
2023/12/10 02:20:33;;;;;;;5.10;2.47;;;;;;;;;;2611767;54;20502;-79
2023/12/10 02:23:10;;;;;;;19.93;6.10;;;;;;;;;;2611153;39;20810;-78
2023/12/10 02:25:37;;;;;;;12.50;3.57;;;;;;;;;;2612518;54;20434;-78
2023/12/10 02:28:03;;;;;;;10.10;3.70;;;;;;;;;;2612669;54;20502;-79
2023/12/10 02:30:30;;;;;;;7.27;2.93;;;;;;;;;;2612437;54;20387;-78
2023/12/10 02:32:57;;;;;;;17.27;3.53;;;;;;;;;;2611766;54;20453;-80
2023/12/10 02:35:23;;;;;;;17.27;4.67;;;;;;;;;;2610903;47;20431;-80
2023/12/10 02:37:49;;;;;;;18.03;3.77;;;;;;;;;;2611781;54;20418;-79
2023/12/10 02:40:18;;;;;;;8.00;3.90;;;;;;;;;;2611642;54;20463;-78
2023/12/10 02:42:47;;;;;;;8.33;3.13;;;;;;;;;;2611802;54;20422;-80
2023/12/10 02:45:17;;;;;;;16.23;3.87;;;;;;;;;;2612570;54;20409;-80
2023/12/10 02:47:43;;;;;;;11.63;5.13;;;;;;;;;;2611243;54;20547;-79
2023/12/10 02:50:09;;;;;;;18.70;4.70;;;;;;;;;;2610788;54;20422;-80
2023/12/10 02:52:39;;;;;;;10.93;5.60;;;;;;;;;;2611293;54;20848;-79
2023/12/10 02:55:05;;;;;;;6.57;3.17;;;;;;;;;;2611889;54;20419;-79
2023/12/10 02:57:31;;;;;;;8.50;4.30;;;;;;;;;;2614363;39;20828;-77
2023/12/10 02:59:57;;;;;;;10.83;3.80;;;;;;;;;;2612607;54;20441;-78
2023/12/10 03:02:23;;;;;;;10.13;3.67;;;;;;;;;;2613379;54;20431;-78
2023/12/10 03:04:49;;;;;;;13.93;3.30;;;;;;;;;;2612690;54;20464;-78
2023/12/10 03:07:15;;;;;;;11.60;3.60;;;;;;;;;;2612134;54;20472;-79
2023/12/10 03:09:42;;;;;;;12.73;4.33;;;;;;;;;;2612558;54;20426;-79
2023/12/10 03:12:09;;;;;;;7.33;2.70;;;;;;;;;;2611613;54;20969;-79
2023/12/10 03:14:35;;;;;;;11.33;4.03;;;;;;;;;;2612487;47;20454;-79
2023/12/10 03:17:01;;;;;;;19.37;6.47;;;;;;;;;;2614342;47;20455;-79
2023/12/10 03:19:27;;;;;;;16.63;3.57;;;;;;;;;;2611821;47;20434;-78
2023/12/10 03:21:53;;;;;;;12.33;5.30;;;;;;;;;;2611934;47;20441;-78
2023/12/10 03:24:19;;;;;;;21.33;5.70;;;;;;;;;;2612816;54;20545;-80
2023/12/10 03:26:45;;;;;;;17.03;5.00;;;;;;;;;;2611800;54;20410;-77
2023/12/10 03:29:11;;;;;;;12.10;4.10;;;;;;;;;;2612469;54;20478;-78
2023/12/10 03:31:37;;;;;;;19.27;4.67;;;;;;;;;;2612309;54;20433;-78
2023/12/10 03:34:03;;;;;;;11.17;3.97;;;;;;;;;;2612310;54;20477;-80
2023/12/10 03:36:30;;;;;;;11.30;3.83;;;;;;;;;;2612258;47;20418;-79
2023/12/10 03:38:56;;;;;;;9.53;4.00;;;;;;;;;;2613125;47;20430;-80
2023/12/10 03:41:22;;;;;;;14.40;5.10;;;;;;;;;;2612968;54;20457;-81
2023/12/10 03:43:48;;;;;;;11.83;3.30;;;;;;;;;;2612736;54;20461;-79
2023/12/10 03:46:14;;;;;;;19.77;4.10;;;;;;;;;;2613431;54;20427;-79
2023/12/10 03:48:40;;;;;;;5.20;2.70;;;;;;;;;;2612774;54;20505;-81
2023/12/10 03:51:06;;;;;;;10.73;3.93;;;;;;;;;;2612942;54;21394;-78
2023/12/10 03:53:32;;;;;;;16.63;4.30;;;;;;;;;;2612885;54;20394;-78
2023/12/10 03:55:58;;;;;;;5.83;2.30;;;;;;;;;;2614508;54;21039;-79
2023/12/10 03:58:24;;;;;;;9.13;3.30;;;;;;;;;;2614003;54;20442;-79
2023/12/10 04:00:50;;;;;;;12.20;3.60;;;;;;;;;;2613285;54;20404;-78
2023/12/10 04:03:17;;;;;;;15.10;2.93;;;;;;;;;;2613243;54;20438;-80
2023/12/10 04:05:43;;;;;;;13.37;4.90;;;;;;;;;;2613633;54;20456;-71
2023/12/10 04:08:10;;;;;;;10.93;3.03;;;;;;;;;;2611830;54;20552;-71
2023/12/10 04:10:36;;;;;;;8.63;3.30;;;;;;;;;;2611479;54;20542;-73
2023/12/10 04:13:03;;;;;;;16.10;4.10;;;;;;;;;;2610800;39;20678;-70
2023/12/10 04:15:29;;;;;;;16.43;3.07;;;;;;;;;;2611880;47;21125;-71
2023/12/10 04:17:55;;;;;;;8.13;2.73;;;;;;;;;;2611149;47;20439;-72
2023/12/10 04:20:21;;;;;;;22.90;3.97;;;;;;;;;;2610555;54;20434;-70
2023/12/10 04:22:47;;;;;;;21.83;4.73;;;;;;;;;;2610175;54;20429;-70
2023/12/10 04:25:13;;;;;;;17.80;3.67;;;;;;;;;;2611566;54;20422;-72
2023/12/10 04:27:39;;;;;;;15.20;3.67;;;;;;;;;;2612232;54;20392;-70
2023/12/10 04:30:06;;;;;;;15.67;5.10;;;;;;;;;;2610799;54;20823;-71
2023/12/10 04:32:32;;;;;;;13.23;3.00;;;;;;;;;;2611186;54;20451;-71
2023/12/10 04:34:58;;;;;;;12.50;2.33;;;;;;;;;;2611096;54;20428;-71
2023/12/10 04:37:24;;;;;;;9.80;3.23;;;;;;;;;;2610657;47;20420;-70
2023/12/10 04:39:50;;;;;;;11.57;3.30;;;;;;;;;;2611604;54;20442;-70
2023/12/10 04:42:16;;;;;;;16.17;4.00;;;;;;;;;;2611194;54;20422;-71
2023/12/10 04:44:42;;;;;;;11.53;3.70;;;;;;;;;;2610526;47;20532;-72
2023/12/10 04:47:08;;;;;;;8.70;3.20;;;;;;;;;;2611223;54;20997;-69
2023/12/10 04:49:34;;;;;;;14.80;3.80;;;;;;;;;;2610603;54;20464;-70
2023/12/10 04:52:00;;;;;;;9.47;4.27;;;;;;;;;;2610393;54;20418;-71
2023/12/10 04:54:26;;;;;;;6.93;1.57;;;;;;;;;;2611453;39;21178;-71
2023/12/10 04:56:52;;;;;;;15.43;2.47;;;;;;;;;;2611880;54;20392;-69
2023/12/10 04:59:18;;;;;;;9.10;2.20;;;;;;;;;;2612995;39;20865;-71
2023/12/10 05:01:44;;;;;;;20.60;5.37;;;;;;;;;;2613572;47;20463;-70
2023/12/10 05:04:10;;;;;;;10.37;2.83;;;;;;;;;;2613602;39;20796;-70
2023/12/10 05:06:36;;;;;;;18.13;4.10;;;;;;;;;;2612127;47;20418;-71
2023/12/10 05:09:03;;;;;;;17.50;4.33;;;;;;;;;;2613480;54;20452;-69
2023/12/10 05:11:29;;;;;;;10.80;3.37;;;;;;;;;;2612925;47;20417;-70
2023/12/10 05:13:55;;;;;;;7.80;2.50;;;;;;;;;;2612103;54;20411;-72
2023/12/10 05:16:21;;;;;;;25.47;7.70;;;;;;;;;;2612973;47;20433;-77
2023/12/10 05:18:47;;;;;;;16.50;3.67;;;;;;;;;;2614580;54;20425;-81
2023/12/10 05:21:13;;;;;;;9.77;2.80;;;;;;;;;;2614553;54;20522;-79
2023/12/10 05:23:39;;;;;;;12.77;4.03;;;;;;;;;;2613805;54;20401;-80
2023/12/10 05:26:06;;;;;;;19.37;4.13;;;;;;;;;;2614157;54;20948;-84
2023/12/10 05:28:32;;;;;;;30.70;5.83;;;;;;;;;;2616091;54;20393;-84
2023/12/10 05:30:58;;;;;;;17.07;3.37;;;;;;;;;;2617365;54;20818;-84
2023/12/10 05:33:24;;;;;;;19.30;4.40;;;;;;;;;;2617183;54;20440;-83
2023/12/10 05:35:51;;;;;;;8.83;3.00;;;;;;;;;;2616037;54;20450;-86
2023/12/10 05:38:17;;;;;;;8.10;3.80;;;;;;;;;;2615155;47;20446;-84
2023/12/10 05:40:43;;;;;;;12.63;5.00;;;;;;;;;;2614336;54;21615;-85
2023/12/10 05:43:09;;;;;;;14.37;3.37;;;;;;;;;;2615203;54;20418;-83
2023/12/10 05:45:35;;;;;;;11.80;3.53;;;;;;;;;;2615376;54;20400;-85
2023/12/10 05:48:01;;;;;;;10.00;3.60;;;;;;;;;;2615427;54;20430;-86
2023/12/10 05:50:27;;;;;;;7.43;2.83;;;;;;;;;;2617633;54;20955;-86
2023/12/10 05:52:53;;;;;;;10.50;3.20;;;;;;;;;;2616435;54;20967;-85
2023/12/10 05:55:19;;;;;;;12.23;3.13;;;;;;;;;;2616767;54;21015;-84
2023/12/10 05:57:45;;;;;;;15.83;3.30;;;;;;;;;;2616352;54;20368;-84
2023/12/10 06:00:11;;;;;;;18.33;3.30;;;;;;;;;;2615613;54;20448;-85
2023/12/10 06:02:38;;;;;;;15.77;5.33;;;;;;;;;;2615980;54;20406;-85
2023/12/10 06:05:05;;;;;;;8.90;3.60;;;;;;;;;;2615739;54;20948;-85
2023/12/10 06:07:31;;;;;;;13.90;3.90;;;;;;;;;;2616428;54;20421;-83
2023/12/10 06:09:57;;;;;;;17.70;4.37;;;;;;;;;;2616304;54;20457;-80
2023/12/10 06:12:23;;;;;;;9.17;3.43;;;;;;;;;;2614399;39;20896;-84
2023/12/10 06:14:49;;;;;;;11.70;2.47;;;;;;;;;;2615640;54;20452;-84
2023/12/10 06:17:15;;;;;;;10.03;2.60;;;;;;;;;;2616168;54;20426;-86
2023/12/10 06:19:41;;;;;;;5.50;2.17;;;;;;;;;;2615323;54;20439;-82
2023/12/10 06:22:08;;;;;;;9.53;2.20;;;;;;;;;;2615047;54;20434;-83
2023/12/10 06:24:34;;;;;;;26.93;3.73;;;;;;;;;;2616046;54;20478;-85
2023/12/10 06:27:00;;;;;;;19.47;2.90;;;;;;;;;;2614392;54;20422;-83
2023/12/10 06:29:26;;;;;;;12.33;3.63;;;;;;;;;;2614286;54;20888;-81
2023/12/10 06:31:53;;;;;;;9.03;2.70;;;;;;;;;;2613353;47;20410;-80
2023/12/10 06:34:19;;;;;;;13.43;4.10;;;;;;;;;;2613126;54;20412;-79
2023/12/10 06:36:45;;;;;;;11.13;2.10;;;;;;;;;;2613038;54;20394;-72
2023/12/10 06:39:11;;;;;;;13.90;3.60;;;;;;;;;;2610945;54;20989;-72
2023/12/10 06:41:38;;;;;;;9.43;3.87;;;;;;;;;;2610793;54;20465;-73
2023/12/10 06:44:04;;;;;;;12.63;2.60;;;;;;;;;;2611069;54;20548;-72
2023/12/10 06:46:30;;;;;;;18.93;2.80;;;;;;;;;;2611354;54;20982;-72
2023/12/10 06:48:56;;;;;;;7.77;1.93;;;;;;;;;;2611268;54;20519;-73
2023/12/10 06:51:22;;;;;;;10.63;3.50;;;;;;;;;;2610688;54;20417;-73
2023/12/10 06:53:48;;;;;;;13.30;2.63;;;;;;;;;;2611071;54;20416;-74
2023/12/10 06:56:14;;;;;;;6.37;2.63;;;;;;;;;;2610322;39;20890;-73
2023/12/10 06:58:40;;;;;;;8.63;3.60;;;;;;;;;;2610011;54;20434;-74
2023/12/10 07:01:06;;;;;;;13.83;2.50;;;;;;;;;;2610666;54;20466;-74
2023/12/10 07:03:33;;;;;;;12.00;3.23;;;;;;;;;;2609388;54;20481;-74
2023/12/10 07:06:03;;;;;;;2.77;1.60;;;;;;;;;;2610459;47;20449;-73
2023/12/10 07:08:29;;;;;;;5.57;2.40;;;;;;;;;;2611003;54;20458;-73
2023/12/10 07:10:55;;;;;;;14.40;3.60;;;;;;;;;;2610837;39;20830;-72
2023/12/10 07:13:21;;;;;;;13.47;3.33;;;;;;;;;;2610407;54;20414;-73
2023/12/10 07:15:47;;;;;;;10.00;3.13;;;;;;;;;;2611461;39;20810;-73
2023/12/10 07:18:13;;;;;;;12.17;3.70;;;;;;;;;;2610785;54;20409;-73
2023/12/10 07:20:39;;;;;;;8.93;2.70;;;;;;;;;;2610865;54;20766;-76
2023/12/10 07:23:05;;;;;;;6.53;2.43;;;;;;;;;;2610542;54;21290;-73
2023/12/10 07:25:32;;;;;;;10.27;3.23;;;;;;;;;;2610407;46;20465;-72
2023/12/10 07:27:58;;;;;;;9.63;2.83;;;;;;;;;;2612100;31;20878;-71
2023/12/10 07:30:24;;;;;;;19.00;4.00;;;;;;;;;;2610560;47;20474;-71
2023/12/10 07:32:50;;;;;;;8.57;2.97;;;;;;;;;;2610533;54;20441;-71
2023/12/10 07:35:17;;;;;;;8.43;2.93;;;;;;;;;;2611031;54;20422;-86
2023/12/10 07:37:43;;;;;;;6.73;3.47;;;;;;;;;;2610867;39;20790;-74
2023/12/10 07:40:09;;;;;;;13.10;2.90;;;;;;;;;;2609560;54;21038;-73
2023/12/10 07:42:35;;;;;;;13.20;3.10;;;;;;;;;;2611593;54;20922;-71
2023/12/10 07:45:03;;;;;;;6.53;2.63;;;;;;;;;;2610813;54;20456;-72
2023/12/10 07:47:29;;;;;;;9.63;2.30;;;;;;;;;;2611041;54;20421;-72
2023/12/10 07:49:55;;;;;;;15.40;2.53;;;;;;;;;;2611143;47;20471;-72
2023/12/10 07:52:21;;;;;;;16.03;2.60;;;;;;;;;;2611003;54;20438;-70
2023/12/10 07:54:47;;;;;;;8.80;2.60;;;;;;;;;;2610537;54;20424;-71
2023/12/10 07:57:13;;;;;;;16.80;3.60;;;;;;;;;;2609407;47;20394;-72
2023/12/10 07:59:39;;;;;;;14.97;3.40;;;;;;;;;;2609381;54;20971;-72
2023/12/10 08:02:05;;;;;;;12.03;3.10;;;;;;;;;;2607977;54;20474;-71
2023/12/10 08:04:31;;;;;;;12.73;3.27;;;;;;;;;;2609467;54;21075;-72
2023/12/10 08:06:58;;;;;;;8.80;3.23;;;;;;;;;;2609483;47;20557;-72
2023/12/10 08:09:24;;;;;;;7.43;2.93;;;;;;;;;;2610044;54;20404;-72
2023/12/10 08:11:50;;;;;;;7.70;2.70;;;;;;;;;;2608863;47;20461;-72
2023/12/10 08:14:16;;;;;;;12.03;3.17;;;;;;;;;;2608497;47;20416;-72
2023/12/10 08:16:42;;;;;;;10.80;2.10;;;;;;;;;;2610054;54;20419;-72
2023/12/10 08:19:08;;;;;;;8.47;2.80;;;;;;;;;;2609450;54;20418;-72
2023/12/10 08:21:34;;;;;;;4.30;2.50;;;;;;;;;;2609792;54;20390;-71
2023/12/10 08:24:00;;;;;;;13.10;3.97;;;;;;;;;;2610687;54;20456;-70
2023/12/10 08:26:26;;;;;;;8.73;2.93;;;;;;;;;;2610827;54;20425;-71
2023/12/10 08:28:52;;;;;;;7.80;2.47;;;;;;;;;;2610940;54;20427;-70
2023/12/10 08:31:18;;;;;;;12.07;3.00;;;;;;;;;;2611168;54;20398;-72
2023/12/10 08:33:45;;;;;;;19.87;3.60;;;;;;;;;;2610493;47;20426;-71
2023/12/10 08:36:11;;;;;;;8.97;2.77;;;;;;;;;;2612458;54;20423;-71
2023/12/10 08:38:37;;;;;;;13.73;2.67;;;;;;;;;;2612197;47;20413;-70
2023/12/10 08:41:04;;;;;;;12.93;2.60;;;;;;;;;;2612069;39;20826;-71
2023/12/10 08:43:30;;;;;;;7.60;2.97;;;;;;;;;;2612589;54;20426;-72
2023/12/10 08:45:57;;;;;;;15.03;3.93;;;;;;;;;;2613446;54;20422;-75
2023/12/10 08:48:23;;;;;;;18.43;4.90;;;;;;;;;;2613352;54;20481;-74
2023/12/10 08:50:49;;;;;;;8.33;3.40;;;;;;;;;;2612356;54;20414;-74
2023/12/10 08:53:16;;;;;;;9.17;3.70;;;;;;;;;;2611036;39;20722;-75
2023/12/10 08:55:42;;;;;;;5.90;2.93;;;;;;;;;;2613372;54;20430;-72
2023/12/10 08:58:08;;;;;;;12.30;3.83;;;;;;;;;;2611723;47;20434;-71
2023/12/10 09:00:34;;;;;;;10.80;3.40;;;;;;;;;;2612607;54;20431;-71
2023/12/10 09:03:00;;;;;;;8.30;3.40;;;;;;;;;;2612206;54;20414;-71
2023/12/10 09:05:26;;;;;;;14.07;4.40;;;;;;;;;;2611724;39;21047;-71
2023/12/10 09:07:52;;;;;;;12.13;3.70;;;;;;;;;;2611909;46;20983;-71
2023/12/10 09:10:18;;;;;;;11.37;3.70;;;;;;;;;;2612352;54;20798;-70
2023/12/10 09:12:44;;;;;;;11.80;2.53;;;;;;;;;;2611525;54;20439;-70
2023/12/10 09:15:10;;;;;;;6.87;2.90;;;;;;;;;;2611736;54;20433;-72
2023/12/10 09:17:36;;;;;;;12.43;4.50;;;;;;;;;;2611989;54;20394;-70
2023/12/10 09:20:02;;;;;;;10.70;3.40;;;;;;;;;;2612254;54;20420;-71
2023/12/10 09:22:28;;;;;;;7.13;2.30;;;;;;;;;;2611783;54;20435;-72
2023/12/10 09:24:54;;;;;;;9.70;4.37;;;;;;;;;;2612141;54;20457;-72
2023/12/10 09:27:20;;;;;;;7.33;2.97;;;;;;;;;;2611857;54;21022;-71
2023/12/10 09:29:46;;;;;;;18.17;5.93;;;;;;;;;;2612162;54;20407;-70
2023/12/10 09:32:15;;;;;;;9.33;2.40;;;;;;;;;;2612525;47;21013;-72
2023/12/10 09:34:41;;;;;;;8.83;3.50;;;;;;;;;;2611998;54;20395;-70
2023/12/10 09:37:10;;;;;;;17.00;4.10;;;;;;;;;;2610698;47;20485;-71
2023/12/10 09:39:36;;;;;;;8.67;3.00;;;;;;;;;;2610219;39;20934;-70
2023/12/10 09:42:03;;;;;;;19.00;4.53;;;;;;;;;;2609589;46;20426;-70
2023/12/10 09:44:29;;;;;;;5.70;2.80;;;;;;;;;;2610199;54;20442;-71
2023/12/10 09:46:55;;;;;;;9.20;3.30;;;;;;;;;;2608947;54;20424;-71
2023/12/10 09:49:23;;;;;;;13.63;3.50;;;;;;;;;;2611418;54;20418;-70
2023/12/10 09:51:49;;;;;;;7.47;3.00;;;;;;;;;;2608152;54;20434;-71
2023/12/10 09:54:20;;;;;;;14.93;3.30;;;;;;;;;;2610302;47;20434;-71
2023/12/10 09:56:47;;;;;;;9.80;3.73;;;;;;;;;;2611643;54;20411;-77
2023/12/10 09:59:13;;;;;;;20.10;4.87;;;;;;;;;;2612410;39;20817;-78
2023/12/10 10:01:39;;;;;;;9.93;3.10;;;;;;;;;;2612001;39;21052;-79
2023/12/10 10:04:05;;;;;;;14.23;3.90;;;;;;;;;;2610450;54;20534;-78
2023/12/10 10:06:31;;;;;;;15.13;5.10;;;;;;;;;;2610461;47;20489;-74
2023/12/10 10:08:57;;;;;;;17.40;5.20;;;;;;;;;;2608032;54;20442;-75
2023/12/10 10:11:23;;;;;;;13.83;3.90;;;;;;;;;;2609425;54;20943;-72
2023/12/10 10:13:51;;;;;;;9.80;4.40;;;;;;;;;;2610875;54;20470;-73
2023/12/10 10:16:17;;;;;;;7.00;3.00;;;;;;;;;;2612106;54;20426;-75
2023/12/10 10:18:43;;;;;;;6.60;3.70;;;;;;;;;;2612102;54;20411;-74
2023/12/10 10:21:10;;;;;;;19.57;3.60;;;;;;;;;;2612083;54;20424;-76
2023/12/10 10:23:36;;;;;;;13.93;3.23;;;;;;;;;;2611798;47;20445;-75
2023/12/10 10:26:03;;;;;;;12.67;4.67;;;;;;;;;;2611334;39;20678;-74
2023/12/10 10:28:29;;;;;;;8.40;3.50;;;;;;;;;;2612866;46;20446;-75
2023/12/10 10:30:57;;;;;;;21.53;3.50;;;;;;;;;;2612283;54;20405;-74
2023/12/10 10:33:24;;;;;;;13.40;3.80;;;;;;;;;;2611820;46;20451;-74
2023/12/10 10:35:52;;;;;;;22.80;5.57;;;;;;;;;;2612626;54;20475;-75
2023/12/10 10:38:20;;;;;;;11.33;3.83;;;;;;;;;;2612671;39;20867;-74
2023/12/10 10:40:47;;;;;;;12.20;4.93;;;;;;;;;;2612516;54;20451;-74
2023/12/10 10:43:13;;;;;;;16.27;3.20;;;;;;;;;;2610195;54;20430;-74
2023/12/10 10:45:39;;;;;;;17.97;6.67;;;;;;;;;;2611139;54;20425;-75
2023/12/10 10:48:06;;;;;;;11.73;5.23;;;;;;;;;;2612099;54;20776;-75
2023/12/10 10:50:34;;;;;;;7.10;3.70;;;;;;;;;;2610689;54;20423;-75
2023/12/10 10:53:00;;;;;;;9.83;3.70;;;;;;;;;;2611042;54;21137;-75
2023/12/10 10:55:26;;;;;;;15.73;4.40;;;;;;;;;;2611087;54;20413;-75
2023/12/10 10:57:54;;;;;;;13.67;5.63;;;;;;;;;;2610461;54;20435;-74
2023/12/10 11:00:20;;;;;;;8.10;3.93;;;;;;;;;;2610522;47;20443;-75
2023/12/10 11:02:47;;;;;;;18.63;4.40;;;;;;;;;;2610392;54;20434;-74
2023/12/10 11:05:13;;;;;;;8.87;4.30;;;;;;;;;;2610538;47;20455;-74
2023/12/10 11:07:42;;;;;;;11.67;4.50;;;;;;;;;;2610362;54;20426;-74
2023/12/10 11:10:08;;;;;;;10.30;4.77;;;;;;;;;;2609837;54;20443;-73
2023/12/10 11:12:41;;;;;;;10.10;3.63;;;;;;;;;;2610397;54;20430;-72
2023/12/10 11:15:28;;;;;;;14.87;4.40;;;;;;;;;;2610761;54;20535;-72
2023/12/10 11:18:02;;;;;;;12.80;3.73;;;;;;;;;;2613897;54;20780;-69
2023/12/10 11:20:30;;;;;;;12.53;4.73;;;;;;;;;;2614436;54;20554;-71
2023/12/10 11:22:56;;;;;;;15.77;5.20;;;;;;;;;;2615340;54;20576;-69
2023/12/10 11:25:22;;;;;;;7.57;3.40;;;;;;;;;;2614283;54;20418;-70
2023/12/10 11:27:48;;;;;;;17.70;4.13;;;;;;;;;;2613817;54;21063;-70
2023/12/10 11:30:14;;;;;;;7.63;4.00;;;;;;;;;;2615025;54;20430;-70
2023/12/10 11:32:40;;;;;;;19.03;4.37;;;;;;;;;;2614858;31;21014;-70
2023/12/10 11:35:06;;;;;;;8.23;3.00;;;;;;;;;;2614236;46;20900;-70
2023/12/10 11:37:33;;;;;;;11.80;5.00;;;;;;;;;;2615113;54;21102;-70
2023/12/10 11:39:59;;;;;;;8.73;5.17;;;;;;;;;;2615192;54;20449;-69
2023/12/10 11:42:26;;;;;;;9.40;4.13;;;;;;;;;;2615416;54;20929;-70
2023/12/10 11:44:52;;;;;;;11.40;3.93;;;;;;;;;;2614790;54;20422;-71
2023/12/10 11:47:18;;;;;;;13.07;4.10;;;;;;;;;;2616319;54;20926;-71
2023/12/10 11:49:44;;;;;;;10.03;3.93;;;;;;;;;;2616745;38;20825;-71
2023/12/10 11:52:11;;;;;;;10.13;4.03;;;;;;;;;;2617008;54;20418;-70
2023/12/10 11:54:38;;;;;;;14.80;6.27;;;;;;;;;;2616882;54;20419;-70
2023/12/10 11:57:04;;;;;;;5.57;3.23;;;;;;;;;;2616940;54;20422;-72
2023/12/10 11:59:30;;;;;;;17.70;4.53;;;;;;;;;;2615569;54;20426;-71
2023/12/10 12:01:56;;;;;;;8.03;3.73;;;;;;;;;;2615253;54;20426;-71
2023/12/10 12:04:27;;;;;;;25.53;5.10;;;;;;;;;;2615041;54;20825;-70
2023/12/10 12:06:54;;;;;;;20.97;5.03;;;;;;;;;;2616157;54;20487;-70
2023/12/10 12:09:23;;;;;;;12.17;3.80;;;;;;;;;;2616071;54;20419;-70
2023/12/10 12:11:49;;;;;;;6.80;3.40;;;;;;;;;;2616282;54;20407;-71
2023/12/10 12:14:16;;;;;;;12.50;4.80;;;;;;;;;;2615746;54;20460;-70
2023/12/10 12:16:42;;;;;;;18.53;4.27;;;;;;;;;;2616914;54;20434;-78
2023/12/10 12:19:08;;;;;;;12.57;4.10;;;;;;;;;;2616212;54;20542;-78
2023/12/10 12:21:34;;;;;;;12.30;3.73;;;;;;;;;;2616432;38;20906;-76
2023/12/10 12:24:00;;;;;;;20.23;7.10;;;;;;;;;;2616009;46;20456;-76
2023/12/10 12:26:26;;;;;;;13.40;4.67;;;;;;;;;;2616496;54;20399;-77
2023/12/10 12:28:52;;;;;;;6.73;3.80;;;;;;;;;;2613486;54;20739;-78
2023/12/10 12:31:18;;;;;;;14.70;4.77;;;;;;;;;;2613236;54;20433;-78
2023/12/10 12:33:44;;;;;;;6.97;3.97;;;;;;;;;;2612484;47;20400;-78
2023/12/10 12:36:10;;;;;;;6.93;4.13;;;;;;;;;;2613626;39;20887;-78
2023/12/10 12:38:38;;;;;;;15.63;4.63;;;;;;;;;;2613563;39;20841;-78
2023/12/10 12:41:04;;;;;;;15.73;4.60;;;;;;;;;;2612666;47;20424;-76
2023/12/10 12:43:31;;;;;;;20.20;5.40;;;;;;;;;;2613291;54;20523;-79
2023/12/10 12:45:57;;;;;;;9.33;4.27;;;;;;;;;;2612899;54;20408;-77
2023/12/10 12:48:23;;;;;;;19.60;6.23;;;;;;;;;;2612173;54;20423;-76
2023/12/10 12:50:49;;;;;;;10.67;4.90;;;;;;;;;;2612821;54;20407;-78
2023/12/10 12:53:15;;;;;;;10.50;5.00;;;;;;;;;;2611870;54;20419;-76
2023/12/10 12:55:41;;;;;;;13.67;4.93;;;;;;;;;;2612664;54;20979;-76
2023/12/10 12:58:07;;;;;;;11.50;4.20;;;;;;;;;;2612941;39;20899;-76
2023/12/10 13:00:33;;;;;;;12.77;5.10;;;;;;;;;;2612958;54;20427;-78
2023/12/10 13:02:59;;;;;;;14.70;3.87;;;;;;;;;;2610303;54;20402;-77
2023/12/10 13:05:25;;;;;;;16.60;3.83;;;;;;;;;;2612184;54;20411;-75
2023/12/10 13:07:51;;;;;;;23.80;7.10;;;;;;;;;;2613039;54;20798;-77
2023/12/10 13:10:17;;;;;;;19.03;6.17;;;;;;;;;;2612624;54;20443;-76
2023/12/10 13:12:43;;;;;;;14.40;5.47;;;;;;;;;;2612793;39;20824;-75
2023/12/10 13:15:09;;;;;;;28.97;5.47;;;;;;;;;;2613251;47;21112;-76
2023/12/10 13:17:35;;;;;;;9.83;5.13;;;;;;;;;;2611552;54;20446;-76
2023/12/10 13:20:01;;;;;;;17.57;6.03;;;;;;;;;;2613634;47;20530;-77
2023/12/10 13:22:27;;;;;;;19.17;4.50;;;;;;;;;;2612820;54;20450;-77
2023/12/10 13:24:53;;;;;;;19.23;4.80;;;;;;;;;;2613504;39;20454;-77
2023/12/10 13:27:20;;;;;;;13.43;5.40;;;;;;;;;;2612308;54;20395;-73
2023/12/10 13:29:46;;;;;;;14.27;5.40;;;;;;;;;;2612613;47;20427;-74
2023/12/10 13:32:12;;;;;;;23.20;6.00;;;;;;;;;;2612077;47;20421;-73
2023/12/10 13:34:39;;;;;;;20.83;6.30;;;;;;;;;;2611951;54;20427;-73
2023/12/10 13:37:05;;;;;;;12.17;3.83;;;;;;;;;;2612655;54;20410;-77
2023/12/10 13:39:31;;;;;;;22.43;6.33;;;;;;;;;;2611643;54;20478;-76
2023/12/10 13:41:57;;;;;;;35.33;6.90;;;;;;;;;;2612897;54;20411;-78
2023/12/10 13:44:24;;;;;;;18.03;5.30;;;;;;;;;;2613184;54;20501;-76
2023/12/10 13:46:50;;;;;;;12.80;4.37;;;;;;;;;;2612630;46;20445;-78
2023/12/10 13:49:16;;;;;;;14.03;5.03;;;;;;;;;;2613071;54;20457;-77
2023/12/10 13:51:42;;;;;;;14.00;4.20;;;;;;;;;;2613403;54;20426;-76
2023/12/10 13:54:08;;;;;;;21.17;7.00;;;;;;;;;;2611701;39;21207;-77
2023/12/10 13:56:34;;;;;;;17.47;5.40;;;;;;;;;;2612378;54;20404;-79
2023/12/10 13:59:00;;;;;;;21.03;5.87;;;;;;;;;;2613994;54;20522;-81
2023/12/10 14:01:26;;;;;;;12.00;3.80;;;;;;;;;;2612891;54;20427;-79
2023/12/10 14:03:54;;;;;;;8.00;3.83;;;;;;;;;;2612319;39;20702;-81
2023/12/10 14:06:21;;;;;;;14.50;5.30;;;;;;;;;;2612825;54;20847;-78
2023/12/10 14:08:47;;;;;;;32.53;7.57;;;;;;;;;;2609708;54;20466;-76
2023/12/10 14:11:13;;;;;;;16.60;4.80;;;;;;;;;;2612388;39;20468;-77
2023/12/10 14:13:39;;;;;;;15.63;5.00;;;;;;;;;;2610417;54;20398;-77
2023/12/10 14:16:05;;;;;;;18.63;4.83;;;;;;;;;;2609270;39;20825;-77
2023/12/10 14:18:31;;;;;;;18.97;7.23;;;;;;;;;;2609092;54;20434;-77
2023/12/10 14:20:58;;;;;;;22.83;5.30;;;;;;;;;;2609763;54;20465;-77
2023/12/10 14:23:24;;;;;;;22.10;4.30;;;;;;;;;;2611014;31;20964;-77
2023/12/10 14:25:50;;;;;;;30.90;7.30;;;;;;;;;;2612543;39;20898;-77
2023/12/10 14:28:16;;;;;;;20.17;5.60;;;;;;;;;;2612133;39;20906;-77